sensor_id;sensor_type;location;lat;lon;timestamp;pressure;altitude;pressure_sealevel;temperature;humidity
39593;BME280;25286;48.870;9.084;2022-09-09T00:02:18;97633.13;;;16.56;74.77
39593;BME280;25286;48.870;9.084;2022-09-09T00:15:05;97630.53;;;16.40;76.32
39593;BME280;25286;48.870;9.084;2022-09-09T00:17:51;97620.84;;;16.38;76.52
39593;BME280;25286;48.870;9.084;2022-09-09T00:25:41;97622.88;;;16.27;77.03
39593;BME280;25286;48.870;9.084;2022-09-09T00:28:20;97620.06;;;16.32;76.58
39593;BME280;25286;48.870;9.084;2022-09-09T00:30:46;97621.72;;;16.33;76.54
39593;BME280;25286;48.870;9.084;2022-09-09T00:33:18;97615.66;;;16.31;76.24
39593;BME280;25286;48.870;9.084;2022-09-09T00:35:55;97618.13;;;16.33;76.23
39593;BME280;25286;48.870;9.084;2022-09-09T00:38:39;97620.59;;;16.34;75.91
39593;BME280;25286;48.870;9.084;2022-09-09T00:41:09;97624.78;;;16.32;76.37
39593;BME280;25286;48.870;9.084;2022-09-09T00:43:38;97616.19;;;16.33;76.20
39593;BME280;25286;48.870;9.084;2022-09-09T00:51:52;97611.00;;;16.26;75.93
39593;BME280;25286;48.870;9.084;2022-09-09T00:54:36;97620.53;;;16.39;75.49
39593;BME280;25286;48.870;9.084;2022-09-09T00:57:18;97627.75;;;16.40;75.27
39593;BME280;25286;48.870;9.084;2022-09-09T01:02:31;97622.63;;;16.52;74.61
39593;BME280;25286;48.870;9.084;2022-09-09T01:05:06;97625.69;;;16.51;74.53
39593;BME280;25286;48.870;9.084;2022-09-09T01:07:35;97609.50;;;16.34;75.59
39593;BME280;25286;48.870;9.084;2022-09-09T01:10:07;97619.44;;;16.40;75.67
39593;BME280;25286;48.870;9.084;2022-09-09T01:12:42;97618.84;;;16.43;75.71
39593;BME280;25286;48.870;9.084;2022-09-09T01:15:18;97620.34;;;16.31;76.29
39593;BME280;25286;48.870;9.084;2022-09-09T01:17:48;97617.81;;;16.34;76.44
39593;BME280;25286;48.870;9.084;2022-09-09T01:20:23;97617.41;;;16.22;75.92
39593;BME280;25286;48.870;9.084;2022-09-09T01:28:11;97625.38;;;16.52;75.30
39593;BME280;25286;48.870;9.084;2022-09-09T01:30:40;97624.06;;;16.50;74.66
39593;BME280;25286;48.870;9.084;2022-09-09T01:33:14;97623.13;;;16.60;74.40
39593;BME280;25286;48.870;9.084;2022-09-09T01:35:50;97641.88;;;16.68;73.92
39593;BME280;25286;48.870;9.084;2022-09-09T01:38:20;97636.00;;;16.74;73.91
39593;BME280;25286;48.870;9.084;2022-09-09T01:40:46;97633.47;;;16.78;73.93
39593;BME280;25286;48.870;9.084;2022-09-09T01:43:11;97635.50;;;16.72;73.92
39593;BME280;25286;48.870;9.084;2022-09-09T01:45:39;97642.91;;;16.77;73.81
39593;BME280;25286;48.870;9.084;2022-09-09T01:48:06;97653.44;;;16.75;73.89
39593;BME280;25286;48.870;9.084;2022-09-09T01:50:32;97644.66;;;16.63;74.50
39593;BME280;25286;48.870;9.084;2022-09-09T01:52:59;97631.84;;;16.77;74.21
39593;BME280;25286;48.870;9.084;2022-09-09T01:55:30;97633.72;;;16.82;74.03
39593;BME280;25286;48.870;9.084;2022-09-09T01:58:03;97637.38;;;16.77;74.49
39593;BME280;25286;48.870;9.084;2022-09-09T02:00:34;97642.44;;;16.65;74.10
39593;BME280;25286;48.870;9.084;2022-09-09T02:03:27;97621.63;;;16.72;73.96
39593;BME280;25286;48.870;9.084;2022-09-09T02:08:39;97624.63;;;16.47;75.18
39593;BME280;25286;48.870;9.084;2022-09-09T02:11:19;97638.03;;;16.64;74.12
39593;BME280;25286;48.870;9.084;2022-09-09T02:13:48;97636.59;;;16.66;73.88
39593;BME280;25286;48.870;9.084;2022-09-09T02:16:28;97641.69;;;16.59;74.06
39593;BME280;25286;48.870;9.084;2022-09-09T02:21:52;97635.91;;;16.56;74.35
39593;BME280;25286;48.870;9.084;2022-09-09T02:24:19;97631.13;;;16.61;74.01
39593;BME280;25286;48.870;9.084;2022-09-09T02:26:46;97645.03;;;16.56;74.13
39593;BME280;25286;48.870;9.084;2022-09-09T02:29:19;97639.25;;;16.52;74.19
39593;BME280;25286;48.870;9.084;2022-09-09T02:31:47;97633.75;;;16.18;75.61
39593;BME280;25286;48.870;9.084;2022-09-09T02:34:15;97637.28;;;16.24;75.71
39593;BME280;25286;48.870;9.084;2022-09-09T02:36:43;97631.66;;;16.34;75.23
39593;BME280;25286;48.870;9.084;2022-09-09T02:39:11;97631.91;;;16.38;75.56
39593;BME280;25286;48.870;9.084;2022-09-09T02:41:40;97641.88;;;16.39;75.57
39593;BME280;25286;48.870;9.084;2022-09-09T02:44:14;97629.44;;;16.36;75.81
39593;BME280;25286;48.870;9.084;2022-09-09T02:47:08;97631.47;;;16.25;76.13
39593;BME280;25286;48.870;9.084;2022-09-09T02:53:16;97606.84;;;15.95;77.54
39593;BME280;25286;48.870;9.084;2022-09-09T02:55:59;97609.91;;;15.88;77.83
39593;BME280;25286;48.870;9.084;2022-09-09T02:58:27;97597.72;;;15.89;77.88
39593;BME280;25286;48.870;9.084;2022-09-09T03:00:53;97604.34;;;15.93;77.69
39593;BME280;25286;48.870;9.084;2022-09-09T03:03:19;97590.03;;;15.86;78.03
39593;BME280;25286;48.870;9.084;2022-09-09T03:05:46;97597.81;;;15.79;78.58
39593;BME280;25286;48.870;9.084;2022-09-09T03:08:12;97599.53;;;15.70;79.10
39593;BME280;25286;48.870;9.084;2022-09-09T03:10:38;97598.47;;;15.66;79.54
39593;BME280;25286;48.870;9.084;2022-09-09T03:13:04;97594.00;;;15.70;79.55
39593;BME280;25286;48.870;9.084;2022-09-09T03:15:32;97588.78;;;15.63;79.88
39593;BME280;25286;48.870;9.084;2022-09-09T03:17:58;97600.16;;;15.57;80.28
39593;BME280;25286;48.870;9.084;2022-09-09T03:20:25;97600.41;;;15.60;80.30
39593;BME280;25286;48.870;9.084;2022-09-09T03:22:55;97606.75;;;15.61;80.03
39593;BME280;25286;48.870;9.084;2022-09-09T03:25:21;97597.38;;;15.67;79.81
39593;BME280;25286;48.870;9.084;2022-09-09T03:27:51;97598.09;;;15.78;79.24
39593;BME280;25286;48.870;9.084;2022-09-09T03:30:23;97603.94;;;15.71;79.09
39593;BME280;25286;48.870;9.084;2022-09-09T03:32:49;97612.84;;;15.58;79.26
39593;BME280;25286;48.870;9.084;2022-09-09T03:35:15;97618.19;;;15.44;79.86
39593;BME280;25286;48.870;9.084;2022-09-09T03:37:42;97610.13;;;15.52;79.78
39593;BME280;25286;48.870;9.084;2022-09-09T03:40:08;97609.66;;;15.40;79.94
39593;BME280;25286;48.870;9.084;2022-09-09T03:42:35;97617.09;;;15.45;79.88
39593;BME280;25286;48.870;9.084;2022-09-09T03:45:03;97612.69;;;15.39;80.24
39593;BME280;25286;48.870;9.084;2022-09-09T03:47:30;97607.19;;;15.34;80.39
39593;BME280;25286;48.870;9.084;2022-09-09T03:49:56;97616.94;;;15.26;81.21
39593;BME280;25286;48.870;9.084;2022-09-09T03:52:21;97616.66;;;15.28;81.15
39593;BME280;25286;48.870;9.084;2022-09-09T03:54:50;97618.25;;;15.34;81.08
39593;BME280;25286;48.870;9.084;2022-09-09T03:57:17;97618.53;;;15.37;80.99
39593;BME280;25286;48.870;9.084;2022-09-09T03:59:43;97612.44;;;15.40;80.82
39593;BME280;25286;48.870;9.084;2022-09-09T04:02:09;97610.47;;;15.46;80.70
39593;BME280;25286;48.870;9.084;2022-09-09T04:04:35;97609.03;;;15.48;80.38
39593;BME280;25286;48.870;9.084;2022-09-09T04:07:01;97611.56;;;15.45;80.79
39593;BME280;25286;48.870;9.084;2022-09-09T04:09:26;97612.41;;;15.45;80.55
39593;BME280;25286;48.870;9.084;2022-09-09T04:11:52;97613.75;;;15.48;80.47
39593;BME280;25286;48.870;9.084;2022-09-09T04:14:19;97617.34;;;15.48;80.18
39593;BME280;25286;48.870;9.084;2022-09-09T04:16:45;97625.38;;;15.50;80.12
39593;BME280;25286;48.870;9.084;2022-09-09T04:19:12;97618.97;;;15.55;79.70
39593;BME280;25286;48.870;9.084;2022-09-09T04:21:39;97623.66;;;15.59;79.20
39593;BME280;25286;48.870;9.084;2022-09-09T04:24:09;97628.63;;;15.57;79.04
39593;BME280;25286;48.870;9.084;2022-09-09T04:26:35;97621.72;;;15.60;78.98
39593;BME280;25286;48.870;9.084;2022-09-09T04:29:03;97621.41;;;15.66;78.58
39593;BME280;25286;48.870;9.084;2022-09-09T04:31:28;97630.53;;;15.72;78.46
39593;BME280;25286;48.870;9.084;2022-09-09T04:33:54;97630.53;;;15.72;78.42
39593;BME280;25286;48.870;9.084;2022-09-09T04:36:20;97627.72;;;15.77;78.50
39593;BME280;25286;48.870;9.084;2022-09-09T04:38:46;97624.44;;;15.70;78.35
39593;BME280;25286;48.870;9.084;2022-09-09T04:41:14;97634.09;;;15.72;78.52
39593;BME280;25286;48.870;9.084;2022-09-09T04:43:41;97633.50;;;15.75;78.40
39593;BME280;25286;48.870;9.084;2022-09-09T04:46:08;97640.16;;;15.74;78.32
39593;BME280;25286;48.870;9.084;2022-09-09T04:48:33;97636.31;;;15.70;78.38
39593;BME280;25286;48.870;9.084;2022-09-09T04:51:04;97631.34;;;15.72;78.46
39593;BME280;25286;48.870;9.084;2022-09-09T04:53:30;97642.94;;;15.74;78.37
39593;BME280;25286;48.870;9.084;2022-09-09T04:56:15;97641.28;;;15.73;78.40
39593;BME280;25286;48.870;9.084;2022-09-09T04:58:41;97646.81;;;15.73;78.28
39593;BME280;25286;48.870;9.084;2022-09-09T05:01:16;97647.66;;;15.74;78.24
39593;BME280;25286;48.870;9.084;2022-09-09T05:03:45;97645.66;;;15.80;77.93
39593;BME280;25286;48.870;9.084;2022-09-09T05:06:13;97652.59;;;15.77;78.16
39593;BME280;25286;48.870;9.084;2022-09-09T05:08:40;97657.59;;;15.75;78.12
39593;BME280;25286;48.870;9.084;2022-09-09T05:11:19;97657.09;;;15.68;78.47
39593;BME280;25286;48.870;9.084;2022-09-09T05:13:45;97656.00;;;15.64;78.80
39593;BME280;25286;48.870;9.084;2022-09-09T05:16:12;97664.84;;;15.66;78.74
39593;BME280;25286;48.870;9.084;2022-09-09T05:18:39;97658.78;;;15.64;79.07
39593;BME280;25286;48.870;9.084;2022-09-09T05:21:05;97659.59;;;15.59;79.15
39593;BME280;25286;48.870;9.084;2022-09-09T05:23:32;97655.47;;;15.57;79.17
39593;BME280;25286;48.870;9.084;2022-09-09T05:25:59;97654.34;;;15.63;79.00
39593;BME280;25286;48.870;9.084;2022-09-09T05:28:26;97659.00;;;15.72;78.68
39593;BME280;25286;48.870;9.084;2022-09-09T05:30:59;97666.19;;;15.73;78.78
39593;BME280;25286;48.870;9.084;2022-09-09T05:33:26;97668.94;;;15.73;78.81
39593;BME280;25286;48.870;9.084;2022-09-09T05:35:59;97670.34;;;15.71;79.08
39593;BME280;25286;48.870;9.084;2022-09-09T05:38:27;97666.44;;;15.77;78.88
39593;BME280;25286;48.870;9.084;2022-09-09T05:40:53;97667.81;;;15.74;78.85
39593;BME280;25286;48.870;9.084;2022-09-09T05:43:21;97672.53;;;15.74;79.06
39593;BME280;25286;48.870;9.084;2022-09-09T05:45:48;97669.47;;;15.75;79.01
39593;BME280;25286;48.870;9.084;2022-09-09T05:48:14;97668.06;;;15.83;78.98
39593;BME280;25286;48.870;9.084;2022-09-09T05:50:42;97669.22;;;15.77;79.10
39593;BME280;25286;48.870;9.084;2022-09-09T05:53:08;97667.81;;;15.74;79.16
39593;BME280;25286;48.870;9.084;2022-09-09T05:55:35;97677.19;;;15.84;79.01
39593;BME280;25286;48.870;9.084;2022-09-09T05:58:01;97681.84;;;15.88;79.03
39593;BME280;25286;48.870;9.084;2022-09-09T06:00:26;97680.47;;;15.91;79.06
39593;BME280;25286;48.870;9.084;2022-09-09T06:02:52;97679.59;;;15.95;78.88
39593;BME280;25286;48.870;9.084;2022-09-09T06:05:19;97679.00;;;15.98;78.79
39593;BME280;25286;48.870;9.084;2022-09-09T06:07:45;97679.00;;;15.98;78.93
39593;BME280;25286;48.870;9.084;2022-09-09T06:10:11;97677.34;;;15.97;79.05
39593;BME280;25286;48.870;9.084;2022-09-09T06:12:39;97671.22;;;16.06;78.76
39593;BME280;25286;48.870;9.084;2022-09-09T06:15:05;97680.09;;;16.02;79.02
39593;BME280;25286;48.870;9.084;2022-09-09T06:17:31;97681.13;;;16.12;78.80
39593;BME280;25286;48.870;9.084;2022-09-09T06:19:57;97675.38;;;16.03;79.13
39593;BME280;25286;48.870;9.084;2022-09-09T06:22:23;97682.03;;;16.02;79.60
39593;BME280;25286;48.870;9.084;2022-09-09T06:24:48;97682.28;;;16.06;79.52
39593;BME280;25286;48.870;9.084;2022-09-09T06:27:14;97669.00;;;16.02;79.60
39593;BME280;25286;48.870;9.084;2022-09-09T06:29:40;97673.47;;;16.04;79.99
39593;BME280;25286;48.870;9.084;2022-09-09T06:32:05;97679.53;;;16.06;79.84
39593;BME280;25286;48.870;9.084;2022-09-09T06:34:33;97683.88;;;16.12;80.20
39593;BME280;25286;48.870;9.084;2022-09-09T06:37:00;97687.75;;;16.16;80.37
39593;BME280;25286;48.870;9.084;2022-09-09T06:39:26;97689.44;;;16.12;80.24
39593;BME280;25286;48.870;9.084;2022-09-09T06:41:52;97691.66;;;16.10;79.74
39593;BME280;25286;48.870;9.084;2022-09-09T06:44:19;97693.88;;;16.08;79.31
39593;BME280;25286;48.870;9.084;2022-09-09T06:46:45;97688.88;;;16.15;79.27
39593;BME280;25286;48.870;9.084;2022-09-09T06:49:13;97705.44;;;16.20;79.04
39593;BME280;25286;48.870;9.084;2022-09-09T06:51:39;97694.00;;;16.32;78.64
39593;BME280;25286;48.870;9.084;2022-09-09T06:54:08;97692.31;;;16.31;78.71
39593;BME280;25286;48.870;9.084;2022-09-09T06:56:36;97701.19;;;16.33;78.82
39593;BME280;25286;48.870;9.084;2022-09-09T06:59:04;97699.28;;;16.28;78.22
39593;BME280;25286;48.870;9.084;2022-09-09T07:01:34;97692.56;;;16.34;78.31
39593;BME280;25286;48.870;9.084;2022-09-09T07:04:01;97692.25;;;16.41;78.01
39593;BME280;25286;48.870;9.084;2022-09-09T07:06:33;97693.88;;;16.47;77.99
39593;BME280;25286;48.870;9.084;2022-09-09T07:09:02;97699.06;;;16.53;77.48
39593;BME280;25286;48.870;9.084;2022-09-09T07:11:42;97698.38;;;16.67;77.39
39593;BME280;25286;48.870;9.084;2022-09-09T07:14:09;97696.97;;;16.69;77.45
39593;BME280;25286;48.870;9.084;2022-09-09T07:16:34;97701.09;;;16.77;77.45
39593;BME280;25286;48.870;9.084;2022-09-09T07:19:03;97705.09;;;16.90;77.33
39593;BME280;25286;48.870;9.084;2022-09-09T07:21:30;97710.06;;;16.93;77.29
39593;BME280;25286;48.870;9.084;2022-09-09T07:23:56;97702.53;;;16.98;76.84
39593;BME280;25286;48.870;9.084;2022-09-09T07:26:24;97707.50;;;17.01;75.69
39593;BME280;25286;48.870;9.084;2022-09-09T07:28:50;97700.81;;;17.02;75.89
39593;BME280;25286;48.870;9.084;2022-09-09T07:31:21;97698.91;;;16.74;77.25
39593;BME280;25286;48.870;9.084;2022-09-09T07:33:47;97702.78;;;17.02;76.22
39593;BME280;25286;48.870;9.084;2022-09-09T07:36:21;97698.94;;;17.22;75.65
39593;BME280;25286;48.870;9.084;2022-09-09T07:38:55;97698.00;;;17.08;75.65
39593;BME280;25286;48.870;9.084;2022-09-09T07:41:24;97699.59;;;17.14;76.40
39593;BME280;25286;48.870;9.084;2022-09-09T07:43:51;97698.22;;;17.35;75.48
39593;BME280;25286;48.870;9.084;2022-09-09T07:46:18;97707.16;;;17.32;75.34
39593;BME280;25286;48.870;9.084;2022-09-09T07:48:46;97699.53;;;17.19;76.21
39593;BME280;25286;48.870;9.084;2022-09-09T07:51:16;97697.81;;;17.47;75.14
39593;BME280;25286;48.870;9.084;2022-09-09T07:53:44;97695.50;;;17.73;73.88
39593;BME280;25286;48.870;9.084;2022-09-09T07:56:15;97704.03;;;17.82;73.58
39593;BME280;25286;48.870;9.084;2022-09-09T07:58:45;97694.06;;;17.99;72.87
39593;BME280;25286;48.870;9.084;2022-09-09T08:03:38;97695.78;;;17.76;71.29
39593;BME280;25286;48.870;9.084;2022-09-09T08:06:06;97688.34;;;17.91;71.47
39593;BME280;25286;48.870;9.084;2022-09-09T08:08:34;97688.22;;;18.20;70.89
39593;BME280;25286;48.870;9.084;2022-09-09T08:11:13;97701.03;;;17.78;71.88
39593;BME280;25286;48.870;9.084;2022-09-09T08:13:40;97699.69;;;18.13;71.44
39593;BME280;25286;48.870;9.084;2022-09-09T08:16:12;97698.19;;;18.21;70.75
39593;BME280;25286;48.870;9.084;2022-09-09T08:18:38;97701.25;;;18.38;69.93
39593;BME280;25286;48.870;9.084;2022-09-09T08:21:06;97702.81;;;18.44;69.34
39593;BME280;25286;48.870;9.084;2022-09-09T08:23:32;97714.38;;;18.51;69.58
39593;BME280;25286;48.870;9.084;2022-09-09T08:26:06;97724.31;;;18.71;68.95
39593;BME280;25286;48.870;9.084;2022-09-09T08:28:32;97717.16;;;18.84;67.92
39593;BME280;25286;48.870;9.084;2022-09-09T08:31:10;97718.81;;;18.85;67.72
39593;BME280;25286;48.870;9.084;2022-09-09T08:33:36;97724.72;;;18.97;67.70
39593;BME280;25286;48.870;9.084;2022-09-09T08:36:04;97717.13;;;18.51;67.76
39593;BME280;25286;48.870;9.084;2022-09-09T08:38:30;97706.66;;;18.95;67.76
39593;BME280;25286;48.870;9.084;2022-09-09T08:41:03;97699.97;;;18.96;66.85
39593;BME280;25286;48.870;9.084;2022-09-09T08:43:32;97702.06;;;19.18;66.02
39593;BME280;25286;48.870;9.084;2022-09-09T08:46:09;97703.81;;;19.14;66.31
39593;BME280;25286;48.870;9.084;2022-09-09T08:51:13;97701.75;;;19.33;65.20
39593;BME280;25286;48.870;9.084;2022-09-09T08:53:48;97694.66;;;19.41;64.85
39593;BME280;25286;48.870;9.084;2022-09-09T08:56:17;97705.16;;;19.44;63.26
39593;BME280;25286;48.870;9.084;2022-09-09T08:58:48;97708.56;;;19.54;62.41
39593;BME280;25286;48.870;9.084;2022-09-09T09:07:35;97698.72;;;19.98;61.95
39593;BME280;25286;48.870;9.084;2022-09-09T09:12:58;97714.22;;;19.22;58.97
39593;BME280;25286;48.870;9.084;2022-09-09T09:15:30;97714.63;;;19.01;59.42
39593;BME280;25286;48.870;9.084;2022-09-09T09:17:56;97709.25;;;19.05;60.02
39593;BME280;25286;48.870;9.084;2022-09-09T09:23:30;97696.72;;;19.63;59.36
39593;BME280;25286;48.870;9.084;2022-09-09T09:26:00;97700.09;;;19.87;58.54
39593;BME280;25286;48.870;9.084;2022-09-09T09:28:32;97690.00;;;19.77;58.55
39593;BME280;25286;48.870;9.084;2022-09-09T09:31:09;97691.66;;;20.15;59.93
39593;BME280;25286;48.870;9.084;2022-09-09T09:33:52;97687.09;;;20.19;60.52
39593;BME280;25286;48.870;9.084;2022-09-09T09:36:19;97684.69;;;20.03;59.95
39593;BME280;25286;48.870;9.084;2022-09-09T09:38:54;97683.88;;;20.03;60.31
39593;BME280;25286;48.870;9.084;2022-09-09T09:44:04;97676.66;;;20.24;60.47
39593;BME280;25286;48.870;9.084;2022-09-09T09:46:31;97672.16;;;20.37;61.34
39593;BME280;25286;48.870;9.084;2022-09-09T09:49:01;97670.72;;;20.40;61.53
39593;BME280;25286;48.870;9.084;2022-09-09T09:51:29;97680.31;;;20.47;61.41
39593;BME280;25286;48.870;9.084;2022-09-09T09:56:41;97678.88;;;20.14;60.88
39593;BME280;25286;48.870;9.084;2022-09-09T10:02:24;97664.41;;;20.48;59.95
39593;BME280;25286;48.870;9.084;2022-09-09T10:07:46;97663.63;;;20.34;58.14
39593;BME280;25286;48.870;9.084;2022-09-09T10:10:23;97665.66;;;20.42;58.99
39593;BME280;25286;48.870;9.084;2022-09-09T10:13:03;97663.63;;;20.34;58.13
39593;BME280;25286;48.870;9.084;2022-09-09T10:21:06;97658.03;;;20.34;56.68
39593;BME280;25286;48.870;9.084;2022-09-09T10:26:55;97665.69;;;20.95;55.99
39593;BME280;25286;48.870;9.084;2022-09-09T10:29:35;97667.22;;;20.79;56.69
39593;BME280;25286;48.870;9.084;2022-09-09T10:35:23;97669.16;;;21.01;55.69
39593;BME280;25286;48.870;9.084;2022-09-09T10:38:05;97672.06;;;20.65;56.46
39593;BME280;25286;48.870;9.084;2022-09-09T10:56:52;97686.97;;;19.88;59.48
39593;BME280;25286;48.870;9.084;2022-09-09T10:59:30;97694.50;;;19.87;60.39
39593;BME280;25286;48.870;9.084;2022-09-09T11:02:10;97690.72;;;19.69;61.27
39593;BME280;25286;48.870;9.084;2022-09-09T11:07:16;97697.75;;;19.67;60.51
39593;BME280;25286;48.870;9.084;2022-09-09T11:09:52;97704.34;;;19.43;60.40
39593;BME280;25286;48.870;9.084;2022-09-09T11:12:21;97714.84;;;19.46;60.50
39593;BME280;25286;48.870;9.084;2022-09-09T11:15:20;97718.44;;;19.33;59.98
39593;BME280;25286;48.870;9.084;2022-09-09T11:17:51;97709.09;;;18.83;61.17
39593;BME280;25286;48.870;9.084;2022-09-09T11:20:18;97717.69;;;19.00;64.81
39593;BME280;25286;48.870;9.084;2022-09-09T11:25:17;97727.28;;;18.23;66.25
39593;BME280;25286;48.870;9.084;2022-09-09T11:30:23;97732.91;;;17.99;65.21
39593;BME280;25286;48.870;9.084;2022-09-09T11:33:18;97731.75;;;18.06;64.61
39593;BME280;25286;48.870;9.084;2022-09-09T11:41:48;60690.63;;;-147.00;100.00
39593;BME280;25286;48.870;9.084;2022-09-09T11:44:28;60690.63;;;-147.00;100.00
39593;BME280;25286;48.870;9.084;2022-09-09T11:46:55;60690.63;;;-147.00;100.00
39593;BME280;25286;48.870;9.084;2022-09-09T11:49:42;60690.63;;;-147.00;100.00
39593;BME280;25286;48.870;9.084;2022-09-09T11:52:34;60690.63;;;-147.00;100.00
39593;BME280;25286;48.870;9.084;2022-09-09T11:55:29;60690.63;;;-147.00;100.00
39593;BME280;25286;48.870;9.084;2022-09-09T11:58:06;60690.63;;;-147.00;100.00
39593;BME280;25286;48.870;9.084;2022-09-09T12:00:45;60690.63;;;-147.00;100.00
39593;BME280;25286;48.870;9.084;2022-09-09T12:08:48;60690.63;;;-147.00;100.00
39593;BME280;25286;48.870;9.084;2022-09-09T12:11:25;60690.63;;;-147.00;100.00
39593;BME280;25286;48.870;9.084;2022-09-09T12:13:53;60690.63;;;-147.00;100.00
39593;BME280;25286;48.870;9.084;2022-09-09T12:16:31;60690.63;;;-147.00;100.00
39593;BME280;25286;48.870;9.084;2022-09-09T12:19:12;60690.63;;;-147.00;100.00
39593;BME280;25286;48.870;9.084;2022-09-09T12:21:58;60690.63;;;-147.00;100.00
39593;BME280;25286;48.870;9.084;2022-09-09T12:24:35;60690.63;;;-147.00;100.00
39593;BME280;25286;48.870;9.084;2022-09-09T12:28:04;60690.63;;;-147.00;100.00
39593;BME280;25286;48.870;9.084;2022-09-09T12:30:07;60690.63;;;-147.00;100.00
39593;BME280;25286;48.870;9.084;2022-09-09T12:32:35;60690.63;;;-147.00;100.00
39593;BME280;25286;48.870;9.084;2022-09-09T12:35:19;60690.63;;;-147.00;100.00
39593;BME280;25286;48.870;9.084;2022-09-09T12:37:48;60690.63;;;-147.00;100.00
39593;BME280;25286;48.870;9.084;2022-09-09T12:40:21;60690.63;;;-147.00;100.00
39593;BME280;25286;48.870;9.084;2022-09-09T12:42:47;60690.63;;;-147.00;100.00
39593;BME280;25286;48.870;9.084;2022-09-09T12:45:20;60690.63;;;-147.00;100.00
39593;BME280;25286;48.870;9.084;2022-09-09T12:47:49;60690.63;;;-147.00;100.00
39593;BME280;25286;48.870;9.084;2022-09-09T12:50:22;60690.63;;;-147.00;100.00
39593;BME280;25286;48.870;9.084;2022-09-09T12:52:50;60690.63;;;-147.00;100.00
39593;BME280;25286;48.870;9.084;2022-09-09T12:55:19;60690.63;;;-147.00;100.00
39593;BME280;25286;48.870;9.084;2022-09-09T12:57:47;60690.63;;;-147.00;100.00
39593;BME280;25286;48.870;9.084;2022-09-09T13:00:19;60690.63;;;-147.00;100.00
39593;BME280;25286;48.870;9.084;2022-09-09T13:02:48;60690.63;;;-147.00;100.00
39593;BME280;25286;48.870;9.084;2022-09-09T13:05:24;60690.63;;;-147.00;100.00
39593;BME280;25286;48.870;9.084;2022-09-09T13:07:50;60690.63;;;-147.00;100.00
39593;BME280;25286;48.870;9.084;2022-09-09T13:10:26;60690.63;;;-147.00;100.00
39593;BME280;25286;48.870;9.084;2022-09-09T13:12:54;60690.63;;;-147.00;100.00
39593;BME280;25286;48.870;9.084;2022-09-09T13:15:24;60690.63;;;-147.00;100.00
39593;BME280;25286;48.870;9.084;2022-09-09T13:17:54;60690.63;;;-147.00;100.00
39593;BME280;25286;48.870;9.084;2022-09-09T13:20:21;60690.63;;;-147.00;100.00
39593;BME280;25286;48.870;9.084;2022-09-09T13:22:49;60690.63;;;-147.00;100.00
39593;BME280;25286;48.870;9.084;2022-09-09T13:25:27;60690.63;;;-147.00;100.00
39593;BME280;25286;48.870;9.084;2022-09-09T13:30:24;60690.63;;;-147.00;100.00
39593;BME280;25286;48.870;9.084;2022-09-09T13:35:35;60690.63;;;-147.00;100.00
39593;BME280;25286;48.870;9.084;2022-09-09T13:38:08;60690.63;;;-147.00;100.00
39593;BME280;25286;48.870;9.084;2022-09-09T13:40:35;60690.63;;;-147.00;100.00
39593;BME280;25286;48.870;9.084;2022-09-09T13:43:01;60690.63;;;-147.00;100.00
39593;BME280;25286;48.870;9.084;2022-09-09T13:45:27;60690.63;;;-147.00;100.00
39593;BME280;25286;48.870;9.084;2022-09-09T13:47:53;60690.63;;;-147.00;100.00
39593;BME280;25286;48.870;9.084;2022-09-09T13:50:25;60690.63;;;-147.00;100.00
39593;BME280;25286;48.870;9.084;2022-09-09T13:52:53;60690.63;;;-147.00;100.00
39593;BME280;25286;48.870;9.084;2022-09-09T13:55:20;60690.63;;;-147.00;100.00
39593;BME280;25286;48.870;9.084;2022-09-09T13:57:54;60690.63;;;-147.00;100.00
39593;BME280;25286;48.870;9.084;2022-09-09T14:00:21;60690.63;;;-147.00;100.00
39593;BME280;25286;48.870;9.084;2022-09-09T14:02:48;60690.63;;;-147.00;100.00
39593;BME280;25286;48.870;9.084;2022-09-09T14:05:14;60690.63;;;-147.00;100.00
39593;BME280;25286;48.870;9.084;2022-09-09T14:07:43;60690.63;;;-147.00;100.00
39593;BME280;25286;48.870;9.084;2022-09-09T14:10:09;60690.63;;;-147.00;100.00
39593;BME280;25286;48.870;9.084;2022-09-09T14:12:35;60690.63;;;-147.00;100.00
39593;BME280;25286;48.870;9.084;2022-09-09T14:15:03;60690.63;;;-147.00;100.00
39593;BME280;25286;48.870;9.084;2022-09-09T14:17:28;60690.63;;;-147.00;100.00
39593;BME280;25286;48.870;9.084;2022-09-09T14:19:55;60690.63;;;-147.00;100.00
39593;BME280;25286;48.870;9.084;2022-09-09T14:22:21;60690.63;;;-147.00;100.00
39593;BME280;25286;48.870;9.084;2022-09-09T14:24:48;60690.63;;;-147.00;100.00
39593;BME280;25286;48.870;9.084;2022-09-09T14:27:13;60690.63;;;-147.00;100.00
39593;BME280;25286;48.870;9.084;2022-09-09T14:29:39;60690.63;;;-147.00;100.00
39593;BME280;25286;48.870;9.084;2022-09-09T14:32:05;60690.63;;;-147.00;100.00
39593;BME280;25286;48.870;9.084;2022-09-09T14:34:30;60690.63;;;-147.00;100.00
39593;BME280;25286;48.870;9.084;2022-09-09T14:36:58;60690.63;;;-147.00;100.00
39593;BME280;25286;48.870;9.084;2022-09-09T14:39:24;60690.63;;;-147.00;100.00
39593;BME280;25286;48.870;9.084;2022-09-09T14:41:49;60690.63;;;-147.00;100.00
39593;BME280;25286;48.870;9.084;2022-09-09T14:44:18;60690.63;;;-147.00;100.00
39593;BME280;25286;48.870;9.084;2022-09-09T14:46:44;60690.63;;;-147.00;100.00
39593;BME280;25286;48.870;9.084;2022-09-09T14:49:10;60690.63;;;-147.00;100.00
39593;BME280;25286;48.870;9.084;2022-09-09T14:51:40;60690.63;;;-147.00;100.00
39593;BME280;25286;48.870;9.084;2022-09-09T14:54:06;60690.63;;;-147.00;100.00
39593;BME280;25286;48.870;9.084;2022-09-09T14:56:32;60690.63;;;-147.00;100.00
39593;BME280;25286;48.870;9.084;2022-09-09T14:59:01;60690.63;;;-147.00;100.00
39593;BME280;25286;48.870;9.084;2022-09-09T15:01:27;60690.63;;;-147.00;100.00
39593;BME280;25286;48.870;9.084;2022-09-09T15:03:56;60690.63;;;-147.00;100.00
39593;BME280;25286;48.870;9.084;2022-09-09T15:06:24;60690.63;;;-147.00;100.00
39593;BME280;25286;48.870;9.084;2022-09-09T15:08:51;60690.63;;;-147.00;100.00